Time;durP1;ratioP1;P1;durP2;ratioP2;P2;SDS_P1;SDS_P2;PMS_P1;PMS_P2;Temp;Humidity;BMP_temperature;BMP_pressure;BME280_temperature;BME280_humidity;BME280_pressure;Samples;Min_cycle;Max_cycle;Signal;HPM_P1;HPM_P2
2022/07/20 00:01:21;;;;;;;;;;;;;;;;;;5072321;28;19971;-77
2022/07/20 00:03:49;;;;;;;;;;;;;;;;;;5072728;28;19934;-78
2022/07/20 00:06:15;;;;;;;;;;;;;;;;;;5072346;28;20011;-78
2022/07/20 00:11:26;;;;;;;;;;;;;;;;;;5074729;28;20024;-77
2022/07/20 00:13:53;;;;;;;;;;;;;;;;;;5072890;28;19931;-78
2022/07/20 00:16:19;;;;;;;;;;;;;;;;;;5078482;28;19951;-78
2022/07/20 00:18:46;;;;;;;;;;;;;;;;;;5078178;28;19931;-77
2022/07/20 00:21:14;;;;;;;;;;;;;;;;;;5073727;28;20409;-78
2022/07/20 00:23:40;;;;;;;;;;;;;;;;;;5075667;28;19928;-78
2022/07/20 00:26:07;;;;;;;;;;;;;;;;;;5074981;28;19996;-78
2022/07/20 00:28:33;;;;;;;;;;;;;;;;;;5073488;28;19933;-78
2022/07/20 00:31:00;;;;;;;;;;;;;;;;;;5076527;28;20451;-78
2022/07/20 00:33:26;;;;;;;;;;;;;;;;;;5079265;28;19947;-77
2022/07/20 00:35:53;;;;;;;;;;;;;;;;;;5072640;28;20653;-77
2022/07/20 00:38:21;;;;;;;;;;;;;;;;;;5072201;28;19971;-78
2022/07/20 00:40:47;;;;;;;;;;;;;;;;;;5079388;28;20383;-78
2022/07/20 00:43:14;;;;;;;;;;;;;;;;;;5073678;28;19964;-79
2022/07/20 00:45:40;;;;;;;;;;;;;;;;;;5073449;28;19964;-78
2022/07/20 00:48:07;;;;;;;;;;;;;;;;;;5073141;28;19924;-78
2022/07/20 00:50:33;;;;;;;;;;;;;;;;;;5074365;28;19958;-78
2022/07/20 00:53:01;;;;;;;;;;;;;;;;;;5075055;28;20584;-77
2022/07/20 00:55:29;;;;;;;;;;;;;;;;;;5076585;28;19971;-77
2022/07/20 00:57:55;;;;;;;;;;;;;;;;;;5074379;28;19974;-79
2022/07/20 01:00:22;;;;;;;;;;;;;;;;;;5085697;28;19967;-79
2022/07/20 01:02:48;;;;;;;;;;;;;;;;;;5096236;28;20026;-76
2022/07/20 01:05:15;;;;;;;;;;;;;;;;;;5095804;28;19924;-79
2022/07/20 01:07:41;;;;;;;;;;;;;;;;;;5097337;28;20010;-79
2022/07/20 01:10:08;;;;;;;;;;;;;;;;;;5099349;28;19924;-79
2022/07/20 01:12:37;;;;;;;;;;;;;;;;;;5100883;28;19924;-79
2022/07/20 01:15:03;;;;;;;;;;;;;;;;;;5100286;28;19966;-78
2022/07/20 01:17:30;;;;;;;;;;;;;;;;;;5100528;28;19928;-79
2022/07/20 01:19:56;;;;;;;;;;;;;;;;;;5101008;28;19932;-78
2022/07/20 01:22:24;;;;;;;;;;;;;;;;;;5100878;28;19987;-78
2022/07/20 01:24:51;;;;;;;;;;;;;;;;;;5100670;28;20045;-78
2022/07/20 01:27:17;;;;;;;;;;;;;;;;;;5100705;28;20027;-79
2022/07/20 01:29:44;;;;;;;;;;;;;;;;;;5156026;22;19974;-76
2022/07/20 01:32:10;;;;;;;;;;;;;;;;;;5132453;28;19974;-76
2022/07/20 01:34:36;;;;;;;;;;;;;;;;;;5132685;28;19963;-76
2022/07/20 01:37:03;;;;;;;;;;;;;;;;;;5132993;28;20022;-75
2022/07/20 01:39:31;;;;;;;;;;;;;;;;;;5133466;27;19973;-76
2022/07/20 01:41:57;;;;;;;;;;;;;;;;;;5138135;27;19998;-76
2022/07/20 01:44:24;;;;;;;;;;;;;;;;;;5135965;27;19969;-75
2022/07/20 01:46:51;;;;;;;;;;;;;;;;;;5135785;27;20389;-75
2022/07/20 01:49:17;;;;;;;;;;;;;;;;;;5136003;27;20010;-75
2022/07/20 01:51:44;;;;;;;;;;;;;;;;;;5135980;27;19976;-75
2022/07/20 01:54:10;;;;;;;;;;;;;;;;;;5135920;27;19968;-75
2022/07/20 01:56:40;;;;;;;;;;;;;;;;;;5135890;27;19971;-75
2022/07/20 01:59:06;;;;;;;;;;;;;;;;;;5135648;27;19968;-75
2022/07/20 02:01:33;;;;;;;;;;;;;;;;;;5116536;27;19931;-75
2022/07/20 02:03:59;;;;;;;;;;;;;;;;;;5115206;28;19924;-75
2022/07/20 02:06:26;;;;;;;;;;;;;;;;;;5115024;28;20117;-75
2022/07/20 02:08:52;;;;;;;;;;;;;;;;;;5115203;28;19927;-76
2022/07/20 02:11:20;;;;;;;;;;;;;;;;;;5115450;28;19924;-75
2022/07/20 02:13:48;;;;;;;;;;;;;;;;;;5114928;28;20043;-75
2022/07/20 02:16:16;;;;;;;;;;;;;;;;;;5114713;28;20397;-75
2022/07/20 02:18:43;;;;;;;;;;;;;;;;;;5114959;28;20409;-75
2022/07/20 02:21:09;;;;;;;;;;;;;;;;;;5115155;28;20015;-75
2022/07/20 02:23:36;;;;;;;;;;;;;;;;;;5115286;28;19924;-75
2022/07/20 02:26:02;;;;;;;;;;;;;;;;;;5117442;28;19980;-75
2022/07/20 02:28:29;;;;;;;;;;;;;;;;;;5117653;28;20439;-75
2022/07/20 02:30:57;;;;;;;;;;;;;;;;;;5120468;28;19924;-75
2022/07/20 02:33:23;;;;;;;;;;;;;;;;;;5125507;28;20413;-75
2022/07/20 02:35:50;;;;;;;;;;;;;;;;;;5127415;28;19924;-75
2022/07/20 02:38:17;;;;;;;;;;;;;;;;;;5123908;28;19963;-75
2022/07/20 02:40:43;;;;;;;;;;;;;;;;;;5131567;28;19928;-75
2022/07/20 02:43:10;;;;;;;;;;;;;;;;;;5156855;27;19923;-75
2022/07/20 02:45:36;;;;;;;;;;;;;;;;;;5153914;27;19924;-75
2022/07/20 02:48:04;;;;;;;;;;;;;;;;;;5146183;27;19948;-75
2022/07/20 02:50:33;;;;;;;;;;;;;;;;;;5137582;27;19959;-75
2022/07/20 02:52:59;;;;;;;;;;;;;;;;;;5136797;27;20315;-76
2022/07/20 02:55:26;;;;;;;;;;;;;;;;;;5136235;27;20374;-75
2022/07/20 02:57:53;;;;;;;;;;;;;;;;;;5134988;27;19981;-75
2022/07/20 03:00:19;;;;;;;;;;;;;;;;;;5127688;27;19987;-75
2022/07/20 03:02:46;;;;;;;;;;;;;;;;;;5114666;28;20018;-76
2022/07/20 03:05:14;;;;;;;;;;;;;;;;;;5113863;28;20406;-76
2022/07/20 03:07:40;;;;;;;;;;;;;;;;;;5113602;28;19971;-75
2022/07/20 03:10:07;;;;;;;;;;;;;;;;;;5113628;28;20011;-76
2022/07/20 03:12:34;;;;;;;;;;;;;;;;;;5113928;28;19982;-76
2022/07/20 03:15:00;;;;;;;;;;;;;;;;;;5114094;28;20019;-76
2022/07/20 03:17:27;;;;;;;;;;;;;;;;;;5113727;28;20005;-76
2022/07/20 03:19:53;;;;;;;;;;;;;;;;;;5113527;28;20566;-76
2022/07/20 03:22:21;;;;;;;;;;;;;;;;;;5113690;28;19970;-76
2022/07/20 03:24:48;;;;;;;;;;;;;;;;;;5113829;28;19923;-76
2022/07/20 03:27:14;;;;;;;;;;;;;;;;;;5113661;28;19985;-77
2022/07/20 03:29:44;;;;;;;;;;;;;;;;;;5113396;28;20007;-76
2022/07/20 03:32:10;;;;;;;;;;;;;;;;;;5113945;28;19977;-76
2022/07/20 03:34:37;;;;;;;;;;;;;;;;;;5113483;28;19923;-76
2022/07/20 03:37:03;;;;;;;;;;;;;;;;;;5113242;28;19975;-76
2022/07/20 03:39:31;;;;;;;;;;;;;;;;;;5113467;28;19969;-76
2022/07/20 03:41:57;;;;;;;;;;;;;;;;;;5113430;28;19930;-76
2022/07/20 03:44:24;;;;;;;;;;;;;;;;;;5113322;28;20438;-75
2022/07/20 03:46:50;;;;;;;;;;;;;;;;;;5113009;28;19967;-76
2022/07/20 03:49:17;;;;;;;;;;;;;;;;;;5113415;28;20014;-76
2022/07/20 03:51:43;;;;;;;;;;;;;;;;;;5113545;28;20018;-77
2022/07/20 03:54:10;;;;;;;;;;;;;;;;;;5113716;28;19967;-75
2022/07/20 03:56:39;;;;;;;;;;;;;;;;;;5113071;28;20348;-76
2022/07/20 03:59:06;;;;;;;;;;;;;;;;;;5113092;28;20064;-76
2022/07/20 04:01:33;;;;;;;;;;;;;;;;;;5132384;27;19958;-76
2022/07/20 04:03:59;;;;;;;;;;;;;;;;;;5133190;27;19970;-77
2022/07/20 04:06:26;;;;;;;;;;;;;;;;;;5133767;27;19927;-76
2022/07/20 04:08:52;;;;;;;;;;;;;;;;;;5134151;27;19959;-75
2022/07/20 04:11:19;;;;;;;;;;;;;;;;;;5134167;27;19978;-76
2022/07/20 04:13:47;;;;;;;;;;;;;;;;;;5133722;27;19923;-75
2022/07/20 04:16:13;;;;;;;;;;;;;;;;;;5133098;27;20313;-76
2022/07/20 04:18:40;;;;;;;;;;;;;;;;;;5133204;27;19923;-75
2022/07/20 04:21:06;;;;;;;;;;;;;;;;;;5133183;27;20417;-76
2022/07/20 04:23:33;;;;;;;;;;;;;;;;;;5133658;27;19974;-75
2022/07/20 04:26:00;;;;;;;;;;;;;;;;;;5133053;28;19929;-76
2022/07/20 04:28:26;;;;;;;;;;;;;;;;;;5133057;28;20006;-76
2022/07/20 04:30:54;;;;;;;;;;;;;;;;;;5133695;28;19976;-76
2022/07/20 04:33:21;;;;;;;;;;;;;;;;;;5132985;28;19927;-76
2022/07/20 04:35:47;;;;;;;;;;;;;;;;;;5133366;28;19971;-75
2022/07/20 04:38:15;;;;;;;;;;;;;;;;;;5132951;28;19943;-76
2022/07/20 04:40:41;;;;;;;;;;;;;;;;;;5133101;28;19923;-76
2022/07/20 04:43:08;;;;;;;;;;;;;;;;;;5133161;28;19996;-76
2022/07/20 04:45:35;;;;;;;;;;;;;;;;;;5133152;28;19924;-75
2022/07/20 04:48:02;;;;;;;;;;;;;;;;;;5133278;28;19924;-75
2022/07/20 04:50:29;;;;;;;;;;;;;;;;;;5133327;28;19973;-76
2022/07/20 04:52:55;;;;;;;;;;;;;;;;;;5133531;28;20442;-76
2022/07/20 04:55:22;;;;;;;;;;;;;;;;;;5133166;28;20449;-76
2022/07/20 04:57:48;;;;;;;;;;;;;;;;;;5133077;28;19963;-75
2022/07/20 05:00:16;;;;;;;;;;;;;;;;;;5124816;28;19974;-75
2022/07/20 05:02:42;;;;;;;;;;;;;;;;;;5112474;28;19928;-75
2022/07/20 05:05:10;;;;;;;;;;;;;;;;;;5112048;28;19923;-76
2022/07/20 05:07:37;;;;;;;;;;;;;;;;;;5112244;28;20366;-74
2022/07/20 05:10:03;;;;;;;;;;;;;;;;;;5112201;28;20415;-75
2022/07/20 05:12:30;;;;;;;;;;;;;;;;;;5112385;28;20450;-76
2022/07/20 05:14:56;;;;;;;;;;;;;;;;;;5114790;28;19964;-75
2022/07/20 05:17:23;;;;;;;;;;;;;;;;;;5116227;28;19923;-76
2022/07/20 05:19:49;;;;;;;;;;;;;;;;;;5116208;28;20016;-76
2022/07/20 05:22:17;;;;;;;;;;;;;;;;;;5116870;28;20352;-74
2022/07/20 05:24:44;;;;;;;;;;;;;;;;;;5115913;28;19979;-74
2022/07/20 05:27:10;;;;;;;;;;;;;;;;;;5116049;28;20343;-76
2022/07/20 05:29:37;;;;;;;;;;;;;;;;;;5115961;28;19924;-75
2022/07/20 05:32:03;;;;;;;;;;;;;;;;;;5116122;28;19966;-74
2022/07/20 05:34:30;;;;;;;;;;;;;;;;;;5116184;28;19967;-76
2022/07/20 05:36:56;;;;;;;;;;;;;;;;;;5115472;28;19982;-75
2022/07/20 05:39:24;;;;;;;;;;;;;;;;;;5115910;28;19969;-76
2022/07/20 05:41:50;;;;;;;;;;;;;;;;;;5115926;28;19984;-76
2022/07/20 05:44:17;;;;;;;;;;;;;;;;;;5117683;28;19966;-76
2022/07/20 05:46:43;;;;;;;;;;;;;;;;;;5117155;28;19924;-75
2022/07/20 05:49:10;;;;;;;;;;;;;;;;;;5116796;28;20344;-76
2022/07/20 05:51:36;;;;;;;;;;;;;;;;;;5116294;28;20040;-75
2022/07/20 05:54:03;;;;;;;;;;;;;;;;;;5118250;28;20007;-77
2022/07/20 05:56:31;;;;;;;;;;;;;;;;;;5120416;28;19971;-74
2022/07/20 05:58:58;;;;;;;;;;;;;;;;;;5120927;28;19924;-76
2022/07/20 06:01:24;;;;;;;;;;;;;;;;;;5136367;27;19923;-76
2022/07/20 06:03:51;;;;;;;;;;;;;;;;;;5137885;27;19992;-76
2022/07/20 06:06:17;;;;;;;;;;;;;;;;;;5137227;27;20394;-75
2022/07/20 06:08:47;;;;;;;;;;;;;;;;;;5138133;27;20011;-74
2022/07/20 06:11:14;;;;;;;;;;;;;;;;;;5138131;27;19982;-75
2022/07/20 06:13:41;;;;;;;;;;;;;;;;;;5137690;27;19992;-75
2022/07/20 06:16:08;;;;;;;;;;;;;;;;;;5135833;27;19923;-77
2022/07/20 06:18:34;;;;;;;;;;;;;;;;;;5135978;27;19923;-75
2022/07/20 06:21:01;;;;;;;;;;;;;;;;;;5136281;27;20430;-76
2022/07/20 06:23:31;;;;;;;;;;;;;;;;;;5136930;27;20450;-75
2022/07/20 06:25:57;;;;;;;;;;;;;;;;;;5134962;27;19930;-76
2022/07/20 06:28:24;;;;;;;;;;;;;;;;;;5135699;27;19923;-75
2022/07/20 06:30:52;;;;;;;;;;;;;;;;;;5135571;27;19924;-75
2022/07/20 06:33:18;;;;;;;;;;;;;;;;;;5135632;27;19976;-75
2022/07/20 06:35:45;;;;;;;;;;;;;;;;;;5135612;27;19924;-75
2022/07/20 06:38:12;;;;;;;;;;;;;;;;;;5135946;27;20013;-76
2022/07/20 06:40:43;;;;;;;;;;;;;;;;;;5137402;27;19946;-75
2022/07/20 06:43:09;;;;;;;;;;;;;;;;;;5139708;27;20347;-76
2022/07/20 06:45:36;;;;;;;;;;;;;;;;;;5135724;27;20018;-76
2022/07/20 06:48:04;;;;;;;;;;;;;;;;;;5135344;27;19996;-76
2022/07/20 06:50:31;;;;;;;;;;;;;;;;;;5135059;27;19924;-75
2022/07/20 06:53:06;;;;;;;;;;;;;;;;;;5137297;27;19959;-77
2022/07/20 06:55:32;;;;;;;;;;;;;;;;;;5136869;27;20332;-76
2022/07/20 06:57:59;;;;;;;;;;;;;;;;;;5136202;27;19958;-76
2022/07/20 07:00:27;;;;;;;;;;;;;;;;;;5117146;27;19927;-76
2022/07/20 07:02:54;;;;;;;;;;;;;;;;;;5134471;27;19923;-76
2022/07/20 07:05:22;;;;;;;;;;;;;;;;;;5135751;27;20010;-76
2022/07/20 07:07:48;;;;;;;;;;;;;;;;;;5135008;27;19970;-77
2022/07/20 07:10:15;;;;;;;;;;;;;;;;;;5134797;27;19966;-77
2022/07/20 07:12:41;;;;;;;;;;;;;;;;;;5134500;27;19963;-75
2022/07/20 07:15:08;;;;;;;;;;;;;;;;;;5118831;27;20014;-75
2022/07/20 07:17:34;;;;;;;;;;;;;;;;;;5111686;28;19984;-76
2022/07/20 07:20:01;;;;;;;;;;;;;;;;;;5111740;28;20655;-76
2022/07/20 07:22:30;;;;;;;;;;;;;;;;;;5111994;28;20037;-77
2022/07/20 07:24:57;;;;;;;;;;;;;;;;;;5112544;28;19931;-76
2022/07/20 07:27:23;;;;;;;;;;;;;;;;;;5111402;28;19974;-76
2022/07/20 07:29:50;;;;;;;;;;;;;;;;;;5111801;28;19986;-76
2022/07/20 07:32:16;;;;;;;;;;;;;;;;;;5125205;22;20390;-75
2022/07/20 07:34:43;;;;;;;;;;;;;;;;;;5136473;28;19916;-75
2022/07/20 07:37:09;;;;;;;;;;;;;;;;;;5136605;28;19923;-76
2022/07/20 07:39:37;;;;;;;;;;;;;;;;;;5117793;28;19923;-76
2022/07/20 07:42:04;;;;;;;;;;;;;;;;;;5125439;28;19967;-76
2022/07/20 07:44:30;;;;;;;;;;;;;;;;;;5130075;28;19923;-75
2022/07/20 07:46:57;;;;;;;;;;;;;;;;;;5136779;28;19918;-75
2022/07/20 07:49:23;;;;;;;;;;;;;;;;;;5135023;28;19919;-75
2022/07/20 07:51:50;;;;;;;;;;;;;;;;;;5133765;28;19924;-75
2022/07/20 07:54:16;;;;;;;;;;;;;;;;;;5135735;28;19912;-76
2022/07/20 07:56:44;;;;;;;;;;;;;;;;;;5135370;28;19912;-76
2022/07/20 07:59:11;;;;;;;;;;;;;;;;;;5134893;28;19923;-77
2022/07/20 08:01:37;;;;;;;;;;;;;;;;;;5138083;28;19919;-76
2022/07/20 08:04:04;;;;;;;;;;;;;;;;;;5138351;28;19923;-77
2022/07/20 08:06:30;;;;;;;;;;;;;;;;;;5135291;28;19920;-77
2022/07/20 08:08:57;;;;;;;;;;;;;;;;;;5135597;28;19972;-77
2022/07/20 08:11:24;;;;;;;;;;;;;;;;;;5134483;28;19924;-77
2022/07/20 08:13:53;;;;;;;;;;;;;;;;;;5117373;28;19931;-75
2022/07/20 08:16:19;;;;;;;;;;;;;;;;;;5113676;28;19918;-76
2022/07/20 08:18:46;;;;;;;;;;;;;;;;;;5112376;28;19935;-75
2022/07/20 08:21:12;;;;;;;;;;;;;;;;;;5108913;28;19978;-76
2022/07/20 08:23:39;;;;;;;;;;;;;;;;;;5096902;28;19927;-76
2022/07/20 08:26:05;;;;;;;;;;;;;;;;;;5094239;28;19993;-80
2022/07/20 08:28:32;;;;;;;;;;;;;;;;;;5093255;28;19964;-77
2022/07/20 08:31:00;;;;;;;;;;;;;;;;;;5093866;28;19932;-80
2022/07/20 08:33:26;;;;;;;;;;;;;;;;;;5094295;28;20604;-76
2022/07/20 08:35:53;;;;;;;;;;;;;;;;;;5096759;28;20381;-76
2022/07/20 08:38:19;;;;;;;;;;;;;;;;;;5092229;28;20633;-76
2022/07/20 08:40:46;;;;;;;;;;;;;;;;;;5091927;28;20012;-77
2022/07/20 08:43:14;;;;;;;;;;;;;;;;;;5093650;28;19923;-77
2022/07/20 08:45:41;;;;;;;;;;;;;;;;;;5094708;28;19924;-76
2022/07/20 08:48:11;;;;;;;;;;;;;;;;;;5090405;28;19963;-76
2022/07/20 08:50:37;;;;;;;;;;;;;;;;;;5094190;28;19954;-77
2022/07/20 08:53:04;;;;;;;;;;;;;;;;;;5095360;28;20011;-77
2022/07/20 08:55:32;;;;;;;;;;;;;;;;;;5094757;28;20022;-77
2022/07/20 08:57:59;;;;;;;;;;;;;;;;;;5094282;28;19928;-77
2022/07/20 09:00:25;;;;;;;;;;;;;;;;;;5094587;28;20275;-77
2022/07/20 09:02:53;;;;;;;;;;;;;;;;;;5099368;28;19924;-77
2022/07/20 09:05:21;;;;;;;;;;;;;;;;;;5095539;28;20054;-76
2022/07/20 09:07:49;;;;;;;;;;;;;;;;;;5096904;28;20010;-76
2022/07/20 09:10:17;;;;;;;;;;;;;;;;;;5095993;28;19924;-77
2022/07/20 09:12:54;;;;;;;;;;;;;;;;;;5095713;28;20549;-76
2022/07/20 09:15:42;;;;;;;;;;;;;;;;;;5095275;28;20331;-76
2022/07/20 09:18:10;;;;;;;;;;;;;;;;;;5090250;28;19931;-76
2022/07/20 09:20:39;;;;;;;;;;;;;;;;;;5094018;28;19967;-77
2022/07/20 09:23:07;;;;;;;;;;;;;;;;;;5094137;28;20450;-76
2022/07/20 09:25:33;;;;;;;;;;;;;;;;;;5094455;28;19924;-76
2022/07/20 09:28:00;;;;;;;;;;;;;;;;;;5093559;28;19924;-76
2022/07/20 09:30:26;;;;;;;;;;;;;;;;;;5093500;28;19930;-77
2022/07/20 09:32:55;;;;;;;;;;;;;;;;;;5093343;28;20305;-78
2022/07/20 09:35:22;;;;;;;;;;;;;;;;;;5094433;28;19972;-78
2022/07/20 09:37:50;;;;;;;;;;;;;;;;;;5093917;28;20028;-76
2022/07/20 09:40:17;;;;;;;;;;;;;;;;;;5093793;28;19967;-77
2022/07/20 09:42:46;;;;;;;;;;;;;;;;;;5095808;28;19931;-77
2022/07/20 09:45:20;;;;;;;;;;;;;;;;;;5096388;28;19925;-78
2022/07/20 09:48:01;;;;;;;;;;;;;;;;;;5094106;28;19928;-77
2022/07/20 09:50:28;;;;;;;;;;;;;;;;;;5095454;28;19924;-77
2022/07/20 09:52:56;;;;;;;;;;;;;;;;;;5095406;28;19924;-77
2022/07/20 09:55:22;;;;;;;;;;;;;;;;;;5094191;28;19966;-77
2022/07/20 09:57:50;;;;;;;;;;;;;;;;;;5093541;28;19968;-76
2022/07/20 10:00:17;;;;;;;;;;;;;;;;;;5092494;28;19963;-77
2022/07/20 10:02:45;;;;;;;;;;;;;;;;;;5094260;28;19977;-77
2022/07/20 10:05:13;;;;;;;;;;;;;;;;;;5093819;28;19947;-75
2022/07/20 10:07:39;;;;;;;;;;;;;;;;;;5092819;28;20466;-76
2022/07/20 10:10:08;;;;;;;;;;;;;;;;;;5093512;28;20435;-76
2022/07/20 10:12:34;;;;;;;;;;;;;;;;;;5093212;28;20008;-76
2022/07/20 10:15:01;;;;;;;;;;;;;;;;;;5093504;28;20022;-77
2022/07/20 10:17:30;;;;;;;;;;;;;;;;;;5095376;28;19989;-78
2022/07/20 10:19:57;;;;;;;;;;;;;;;;;;5094439;28;19946;-77
2022/07/20 10:22:23;;;;;;;;;;;;;;;;;;5096519;28;19924;-80
2022/07/20 10:25:13;;;;;;;;;;;;;;;;;;5102919;28;19931;-80
2022/07/20 10:27:41;;;;;;;;;;;;;;;;;;5095345;28;20022;-78
2022/07/20 10:30:17;;;;;;;;;;;;;;;;;;5096370;28;20018;-79
2022/07/20 10:32:52;;;;;;;;;;;;;;;;;;5095282;28;20036;-79
2022/07/20 10:35:26;;;;;;;;;;;;;;;;;;5093165;28;19924;-77
2022/07/20 10:37:53;;;;;;;;;;;;;;;;;;5093948;28;19971;-77
2022/07/20 10:40:20;;;;;;;;;;;;;;;;;;5094168;28;19935;-76
2022/07/20 10:42:49;;;;;;;;;;;;;;;;;;5093563;28;20379;-77
2022/07/20 10:45:31;;;;;;;;;;;;;;;;;;5097361;28;20011;-77
2022/07/20 10:48:00;;;;;;;;;;;;;;;;;;5113553;28;19924;-77
2022/07/20 10:50:30;;;;;;;;;;;;;;;;;;5113379;28;19955;-77
2022/07/20 10:52:57;;;;;;;;;;;;;;;;;;5097821;28;19947;-77
2022/07/20 10:55:42;;;;;;;;;;;;;;;;;;5096736;28;19924;-76
2022/07/20 10:58:11;;;;;;;;;;;;;;;;;;5092299;28;19924;-77
2022/07/20 11:00:38;;;;;;;;;;;;;;;;;;5092393;28;19924;-78
2022/07/20 11:03:11;;;;;;;;;;;;;;;;;;5092364;28;20011;-77
2022/07/20 11:05:38;;;;;;;;;;;;;;;;;;5093026;28;19924;-77
2022/07/20 11:08:04;;;;;;;;;;;;;;;;;;5092512;28;19985;-77
2022/07/20 11:10:31;;;;;;;;;;;;;;;;;;5093238;28;20110;-77
2022/07/20 11:12:58;;;;;;;;;;;;;;;;;;5092560;28;19924;-78
2022/07/20 11:15:37;;;;;;;;;;;;;;;;;;5097161;28;19939;-77
2022/07/20 11:18:07;;;;;;;;;;;;;;;;;;5094272;28;19932;-77
2022/07/20 11:20:33;;;;;;;;;;;;;;;;;;5093492;28;20015;-78
2022/07/20 11:23:02;;;;;;;;;;;;;;;;;;5091794;28;21709;-78
2022/07/20 11:25:44;;;;;;;;;;;;;;;;;;5092306;28;20418;-78
2022/07/20 11:28:11;;;;;;;;;;;;;;;;;;5092312;28;20343;-78
2022/07/20 11:30:39;;;;;;;;;;;;;;;;;;5092121;28;19947;-76
2022/07/20 11:33:06;;;;;;;;;;;;;;;;;;5096896;28;19955;-77
2022/07/20 11:35:33;;;;;;;;;;;;;;;;;;5107251;28;19928;-77
2022/07/20 11:38:00;;;;;;;;;;;;;;;;;;5108611;28;19935;-77
2022/07/20 11:40:27;;;;;;;;;;;;;;;;;;5115265;28;19912;-76
2022/07/20 11:43:10;;;;;;;;;;;;;;;;;;5113606;28;20014;-77
2022/07/20 11:45:39;;;;;;;;;;;;;;;;;;5112314;28;19926;-77
2022/07/20 11:48:18;;;;;;;;;;;;;;;;;;5113832;28;20089;-79
2022/07/20 11:50:45;;;;;;;;;;;;;;;;;;5105750;28;19967;-79
2022/07/20 11:53:25;;;;;;;;;;;;;;;;;;5099031;28;19977;-76
2022/07/20 11:55:51;;;;;;;;;;;;;;;;;;5115182;28;19924;-78
2022/07/20 11:58:23;;;;;;;;;;;;;;;;;;5095307;28;19931;-77
2022/07/20 12:00:51;;;;;;;;;;;;;;;;;;5092181;28;19928;-77
2022/07/20 12:03:20;;;;;;;;;;;;;;;;;;5091391;28;20022;-77
2022/07/20 12:05:47;;;;;;;;;;;;;;;;;;5091742;28;20385;-77
2022/07/20 12:08:13;;;;;;;;;;;;;;;;;;5091581;28;19968;-78
2022/07/20 12:10:42;;;;;;;;;;;;;;;;;;5090896;28;20378;-78
2022/07/20 12:13:08;;;;;;;;;;;;;;;;;;5091312;28;19946;-78
2022/07/20 12:15:35;;;;;;;;;;;;;;;;;;5091048;28;19955;-77
2022/07/20 12:18:03;;;;;;;;;;;;;;;;;;5090915;28;20589;-78
2022/07/20 12:20:29;;;;;;;;;;;;;;;;;;5091055;28;20019;-77
2022/07/20 12:22:57;;;;;;;;;;;;;;;;;;5090461;28;19931;-76
2022/07/20 12:25:34;;;;;;;;;;;;;;;;;;5090417;28;20011;-77
2022/07/20 12:28:01;;;;;;;;;;;;;;;;;;5092713;28;19928;-77
2022/07/20 12:30:28;;;;;;;;;;;;;;;;;;5090487;28;20435;-77
2022/07/20 12:33:12;;;;;;;;;;;;;;;;;;5090351;28;19924;-77
2022/07/20 12:35:41;;;;;;;;;;;;;;;;;;5090618;28;20020;-77
2022/07/20 12:38:08;;;;;;;;;;;;;;;;;;5090444;28;19970;-77
2022/07/20 12:40:37;;;;;;;;;;;;;;;;;;5090233;28;19982;-77
2022/07/20 12:43:04;;;;;;;;;;;;;;;;;;5090385;28;19928;-77
2022/07/20 12:45:31;;;;;;;;;;;;;;;;;;5091362;28;20066;-77
2022/07/20 12:47:57;;;;;;;;;;;;;;;;;;5090862;28;20390;-77
2022/07/20 12:50:24;;;;;;;;;;;;;;;;;;5090323;28;19924;-77
2022/07/20 12:52:51;;;;;;;;;;;;;;;;;;5090289;28;19928;-77
2022/07/20 12:55:18;;;;;;;;;;;;;;;;;;5091377;28;20410;-77
2022/07/20 12:57:46;;;;;;;;;;;;;;;;;;5090799;28;20514;-78
2022/07/20 13:00:13;;;;;;;;;;;;;;;;;;5090424;28;20599;-78
2022/07/20 13:02:39;;;;;;;;;;;;;;;;;;5090801;28;19971;-78
2022/07/20 13:05:06;;;;;;;;;;;;;;;;;;5091026;28;19964;-78
2022/07/20 13:07:32;;;;;;;;;;;;;;;;;;5089902;28;19978;-78
2022/07/20 13:10:00;;;;;;;;;;;;;;;;;;5090013;28;20014;-78
2022/07/20 13:12:26;;;;;;;;;;;;;;;;;;5089950;28;20375;-78
2022/07/20 13:14:53;;;;;;;;;;;;;;;;;;5090112;28;20465;-77
2022/07/20 13:17:19;;;;;;;;;;;;;;;;;;5090499;28;19928;-78
2022/07/20 13:19:46;;;;;;;;;;;;;;;;;;5090354;28;19970;-78
2022/07/20 13:22:14;;;;;;;;;;;;;;;;;;5089786;28;19994;-78
2022/07/20 13:24:41;;;;;;;;;;;;;;;;;;5090555;28;19928;-79
2022/07/20 13:27:09;;;;;;;;;;;;;;;;;;5094462;28;19955;-78
2022/07/20 13:29:35;;;;;;;;;;;;;;;;;;5089999;28;19969;-78
2022/07/20 13:32:02;;;;;;;;;;;;;;;;;;5090077;28;20003;-79
2022/07/20 13:34:28;;;;;;;;;;;;;;;;;;5117881;22;19958;-79
2022/07/20 13:36:55;;;;;;;;;;;;;;;;;;5127122;28;19927;-79
2022/07/20 13:39:21;;;;;;;;;;;;;;;;;;5118510;28;20573;-78
2022/07/20 13:41:49;;;;;;;;;;;;;;;;;;5119405;28;20022;-78
2022/07/20 13:44:17;;;;;;;;;;;;;;;;;;5116190;28;19955;-79
2022/07/20 13:46:44;;;;;;;;;;;;;;;;;;5122220;28;19951;-78
2022/07/20 13:49:11;;;;;;;;;;;;;;;;;;5119519;28;19924;-77
2022/07/20 13:51:37;;;;;;;;;;;;;;;;;;5119199;28;19924;-79
2022/07/20 13:54:04;;;;;;;;;;;;;;;;;;5120094;28;20023;-78
2022/07/20 13:56:31;;;;;;;;;;;;;;;;;;5127535;28;19924;-80
2022/07/20 13:58:58;;;;;;;;;;;;;;;;;;5126865;28;19988;-76
2022/07/20 14:01:27;;;;;;;;;;;;;;;;;;5119390;28;20328;-80
2022/07/20 14:03:53;;;;;;;;;;;;;;;;;;5119503;27;19923;-79
2022/07/20 14:06:21;;;;;;;;;;;;;;;;;;5116615;28;19973;-78
2022/07/20 14:08:47;;;;;;;;;;;;;;;;;;5117158;28;19939;-78
2022/07/20 14:11:14;;;;;;;;;;;;;;;;;;5117309;28;19945;-79
2022/07/20 14:13:40;;;;;;;;;;;;;;;;;;5117842;28;19934;-79
2022/07/20 14:16:07;;;;;;;;;;;;;;;;;;5117964;28;19963;-79
2022/07/20 14:18:35;;;;;;;;;;;;;;;;;;5118074;28;19939;-79
2022/07/20 14:21:03;;;;;;;;;;;;;;;;;;5133640;27;19927;-79
2022/07/20 14:23:29;;;;;;;;;;;;;;;;;;5147603;27;20435;-81
2022/07/20 14:25:56;;;;;;;;;;;;;;;;;;5148269;27;19933;-81
2022/07/20 14:28:22;;;;;;;;;;;;;;;;;;5140237;27;20029;-80
2022/07/20 14:30:49;;;;;;;;;;;;;;;;;;5137322;27;19974;-80
2022/07/20 14:33:15;;;;;;;;;;;;;;;;;;5141710;27;19989;-81
2022/07/20 14:35:43;;;;;;;;;;;;;;;;;;5136374;27;20427;-78
2022/07/20 14:38:10;;;;;;;;;;;;;;;;;;5134342;27;20335;-80
2022/07/20 14:40:36;;;;;;;;;;;;;;;;;;5138475;27;19962;-80
2022/07/20 14:43:03;;;;;;;;;;;;;;;;;;5140871;27;20348;-80
2022/07/20 14:45:33;;;;;;;;;;;;;;;;;;5136531;27;20274;-79
2022/07/20 14:47:59;;;;;;;;;;;;;;;;;;5141575;27;19924;-80
2022/07/20 14:50:26;;;;;;;;;;;;;;;;;;5139586;27;19928;-78
2022/07/20 14:52:54;;;;;;;;;;;;;;;;;;5133425;27;19969;-78
2022/07/20 14:55:21;;;;;;;;;;;;;;;;;;5134320;27;20014;-78
2022/07/20 14:57:48;;;;;;;;;;;;;;;;;;5143970;27;19927;-79
2022/07/20 15:00:15;;;;;;;;;;;;;;;;;;5141358;27;19931;-80
2022/07/20 15:02:41;;;;;;;;;;;;;;;;;;5138659;27;20012;-80
2022/07/20 15:05:08;;;;;;;;;;;;;;;;;;5138752;27;19927;-79
2022/07/20 15:07:35;;;;;;;;;;;;;;;;;;5135593;27;19977;-78
2022/07/20 15:10:03;;;;;;;;;;;;;;;;;;5142665;27;19963;-79
2022/07/20 15:12:30;;;;;;;;;;;;;;;;;;5138514;27;19958;-79
2022/07/20 15:14:56;;;;;;;;;;;;;;;;;;5137523;27;20362;-79
2022/07/20 15:17:22;;;;;;;;;;;;;;;;;;5138885;27;20006;-79
2022/07/20 15:19:49;;;;;;;;;;;;;;;;;;5145841;27;20409;-81
2022/07/20 15:22:16;;;;;;;;;;;;;;;;;;5138487;27;19970;-80
2022/07/20 15:24:42;;;;;;;;;;;;;;;;;;5133690;27;19923;-79
2022/07/20 15:27:10;;;;;;;;;;;;;;;;;;5127403;27;19923;-79
2022/07/20 15:29:37;;;;;;;;;;;;;;;;;;5117037;28;20068;-78
2022/07/20 15:32:03;;;;;;;;;;;;;;;;;;5120982;28;19962;-78
2022/07/20 15:34:30;;;;;;;;;;;;;;;;;;5121339;28;20015;-79
2022/07/20 15:36:57;;;;;;;;;;;;;;;;;;5114509;28;19969;-80
2022/07/20 15:39:23;;;;;;;;;;;;;;;;;;5114801;28;19924;-79
2022/07/20 15:41:50;;;;;;;;;;;;;;;;;;5114725;28;20026;-78
2022/07/20 15:44:20;;;;;;;;;;;;;;;;;;5119151;27;19924;-78
2022/07/20 15:46:47;;;;;;;;;;;;;;;;;;5132179;27;20370;-77
2022/07/20 15:49:14;;;;;;;;;;;;;;;;;;5126187;27;19931;-78
2022/07/20 15:51:40;;;;;;;;;;;;;;;;;;5111990;28;19923;-78
2022/07/20 15:54:07;;;;;;;;;;;;;;;;;;5118345;28;20006;-77
2022/07/20 15:59:14;;;;;;;;;;;;;;;;;;5128521;28;19924;-77
2022/07/20 16:01:42;;;;;;;;;;;;;;;;;;5149724;27;19923;-79
2022/07/20 16:04:09;;;;;;;;;;;;;;;;;;5138959;27;19928;-79
2022/07/20 16:06:35;;;;;;;;;;;;;;;;;;5137920;27;19923;-78
2022/07/20 16:09:01;;;;;;;;;;;;;;;;;;5142576;27;19924;-79
2022/07/20 16:11:28;;;;;;;;;;;;;;;;;;5137010;27;19958;-79
2022/07/20 16:13:54;;;;;;;;;;;;;;;;;;5138004;27;19923;-78
2022/07/20 16:16:21;;;;;;;;;;;;;;;;;;5140333;27;19923;-78
2022/07/20 16:18:49;;;;;;;;;;;;;;;;;;5144522;27;19980;-80
2022/07/20 16:21:15;;;;;;;;;;;;;;;;;;5146250;27;19967;-78
2022/07/20 16:23:43;;;;;;;;;;;;;;;;;;5142802;27;19963;-79
2022/07/20 16:26:11;;;;;;;;;;;;;;;;;;5135176;27;19927;-79
2022/07/20 16:28:37;;;;;;;;;;;;;;;;;;5139016;27;19933;-80
2022/07/20 16:31:05;;;;;;;;;;;;;;;;;;5137111;27;19945;-78
2022/07/20 16:33:32;;;;;;;;;;;;;;;;;;5135872;28;20359;-77
2022/07/20 16:36:02;;;;;;;;;;;;;;;;;;5137602;28;19955;-78
2022/07/20 16:38:29;;;;;;;;;;;;;;;;;;5145863;28;19935;-80
2022/07/20 16:40:56;;;;;;;;;;;;;;;;;;5139859;28;19923;-77
2022/07/20 16:43:22;;;;;;;;;;;;;;;;;;5139806;28;19966;-79
2022/07/20 16:45:51;;;;;;;;;;;;;;;;;;5136949;28;19982;-79
2022/07/20 16:48:17;;;;;;;;;;;;;;;;;;5140487;28;19923;-77
2022/07/20 16:50:44;;;;;;;;;;;;;;;;;;5136327;28;19981;-79
2022/07/20 16:53:12;;;;;;;;;;;;;;;;;;5144631;28;19962;-79